Time;durP1;ratioP1;P1;durP2;ratioP2;P2;SDS_P1;SDS_P2;PMS_P1;PMS_P2;Temp;Humidity;BMP_temperature;BMP_pressure;BME280_temperature;BME280_humidity;BME280_pressure;Samples;Min_cycle;Max_cycle;Signal;HPM_P1;HPM_P2
2024/01/06 00:02:05;;;;;;;6.53;4.57;;;;;;;1.34;100.00;100775.63;5010717;28;20211;-73
2024/01/06 00:04:31;;;;;;;6.90;4.20;;;;;;;1.86;100.00;100850.16;5010263;28;20447;-74
2024/01/06 00:06:56;;;;;;;7.00;4.90;;;;;;;1.55;100.00;100794.78;5014986;28;20195;-74
2024/01/06 00:09:22;;;;;;;6.03;4.13;;;;;;;0.82;100.00;100678.19;5016417;28;20586;-74
2024/01/06 00:11:47;;;;;;;8.40;5.07;;;;;;;1.71;100.00;100831.25;5015529;28;20189;-74
2024/01/06 00:14:13;;;;;;;7.90;4.80;;;;;;;1.37;100.00;100783.28;5015300;28;20184;-74
2024/01/06 00:16:38;;;;;;;6.57;4.57;;;;;;;1.92;100.00;100840.81;5007618;28;20243;-73
2024/01/06 00:19:04;;;;;;;7.23;4.90;;;;;;;1.88;100.00;100852.63;5014898;28;20223;-73
2024/01/06 00:21:29;;;;;;;7.40;5.57;;;;;;;1.59;100.00;100829.72;5019933;28;20205;-74
2024/01/06 00:23:57;;;;;;;7.57;5.43;;;;;;;1.45;100.00;100795.81;5020042;28;20258;-73
2024/01/06 00:26:24;;;;;;;7.70;4.90;;;;;;;1.93;100.00;100866.28;5000180;28;20197;-74
2024/01/06 00:28:50;;;;;;;7.70;4.77;;;;;;;0.97;100.00;100739.34;5020376;28;20470;-74
2024/01/06 00:31:19;;;;;;;7.10;4.80;;;;;;;1.57;100.00;100858.13;5018742;28;20796;-73
2024/01/06 00:33:45;;;;;;;7.40;4.37;;;;;;;1.85;100.00;100860.88;5001621;28;20886;-73
2024/01/06 00:36:10;;;;;;;7.07;4.90;;;;;;;1.57;100.00;100826.41;5015943;28;20531;-74
2024/01/06 00:38:36;;;;;;;6.93;4.40;;;;;;;1.68;100.00;100825.38;5007032;28;20208;-73
2024/01/06 00:41:02;;;;;;;7.40;4.87;;;;;;;1.16;100.00;100791.38;5009840;28;20188;-74
2024/01/06 00:43:27;;;;;;;6.90;4.77;;;;;;;1.16;100.00;100830.13;5015905;28;20193;-73
2024/01/06 00:45:52;;;;;;;8.10;5.30;;;;;;;0.94;100.00;100755.47;5013230;28;20197;-73
2024/01/06 00:48:18;;;;;;;7.73;4.97;;;;;;;0.84;100.00;100796.88;4995690;28;20521;-74
2024/01/06 00:50:44;;;;;;;7.37;5.17;;;;;;;0.79;100.00;100777.97;5015696;28;20188;-73
2024/01/06 00:53:09;;;;;;;7.80;5.30;;;;;;;0.65;100.00;100776.56;5016191;28;20204;-73
2024/01/06 00:55:34;;;;;;;6.67;4.80;;;;;;;1.78;100.00;100945.22;5012285;28;20230;-74
2024/01/06 00:58:00;;;;;;;8.37;5.33;;;;;;;1.19;100.00;100862.41;5015803;28;20691;-74
2024/01/06 01:00:27;;;;;;;7.30;5.03;;;;;;;1.86;100.00;100944.53;5017155;28;20227;-73
2024/01/06 01:02:53;;;;;;;7.90;4.93;;;;;;;1.89;100.00;100945.09;5014136;28;20209;-74
2024/01/06 01:05:18;;;;;;;7.40;5.20;;;;;;;1.50;100.00;100852.53;5015412;28;20447;-73
2024/01/06 01:07:44;;;;;;;9.30;4.70;;;;;;;1.16;100.00;100845.97;5007209;28;20554;-73
2024/01/06 01:10:10;;;;;;;7.03;4.73;;;;;;;1.71;100.00;100960.00;5016011;28;20969;-73
2024/01/06 01:12:35;;;;;;;6.97;4.73;;;;;;;1.92;100.00;100968.63;4993521;28;20203;-73
2024/01/06 01:15:01;;;;;;;7.80;5.07;;;;;;;1.24;100.00;100854.88;5013460;28;20201;-73
2024/01/06 01:17:27;;;;;;;7.10;4.60;;;;;;;1.97;100.00;100979.63;5017710;28;21080;-73
2024/01/06 01:19:52;;;;;;;8.53;4.90;;;;;;;1.89;100.00;100970.72;5010722;28;20912;-73
2024/01/06 01:22:17;;;;;;;8.30;4.97;;;;;;;1.61;100.00;100932.69;4999637;28;20220;-73
2024/01/06 01:24:43;;;;;;;8.00;5.03;;;;;;;1.57;100.00;100974.44;4997834;28;20200;-73
2024/01/06 01:27:09;;;;;;;7.13;4.67;;;;;;;1.87;100.00;101005.22;4995873;28;20270;-73
2024/01/06 01:29:34;;;;;;;7.07;4.50;;;;;;;1.67;100.00;100929.50;5015070;28;20193;-73
2024/01/06 01:32:00;;;;;;;7.97;5.10;;;;;;;1.76;100.00;101021.22;5018905;28;20214;-73
2024/01/06 01:34:25;;;;;;;10.67;5.70;;;;;;;1.44;100.00;101006.41;5012043;28;20224;-73
2024/01/06 01:36:51;;;;;;;6.77;4.20;;;;;;;1.24;100.00;100984.38;5015475;28;20192;-73
2024/01/06 01:39:17;;;;;;;7.67;4.70;;;;;;;1.73;100.00;100969.44;5013322;28;20687;-73
2024/01/06 01:41:42;;;;;;;8.23;4.50;;;;;;;1.58;100.00;101016.59;5014043;28;20263;-73
2024/01/06 01:44:08;;;;;;;8.00;4.63;;;;;;;1.40;100.00;101015.59;5011630;28;20454;-73
2024/01/06 01:46:33;;;;;;;7.70;4.83;;;;;;;1.26;100.00;100981.59;4998905;28;20279;-73
2024/01/06 01:49:00;;;;;;;7.20;5.00;;;;;;;1.56;100.00;101031.78;4989976;28;22613;-73
2024/01/06 01:51:34;;;;;;;7.00;4.90;;;;;;;1.05;100.00;100964.03;5012950;28;20204;-73
2024/01/06 01:54:04;;;;;;;7.80;5.40;;;;;;;1.56;100.00;101023.84;5014455;28;20443;-74
2024/01/06 01:56:33;;;;;;;8.03;4.77;;;;;;;0.96;100.00;100954.28;5014292;28;20470;-74
2024/01/06 01:59:03;;;;;;;9.70;4.30;;;;;;;1.68;100.00;101036.94;5014910;28;20463;-73
2024/01/06 02:01:29;;;;;;;7.97;4.80;;;;;;;1.45;100.00;101044.28;4999298;28;20463;-73
2024/01/06 02:03:55;;;;;;;7.07;4.30;;;;;;;1.46;100.00;101053.88;5007900;28;20462;-73
2024/01/06 02:06:20;;;;;;;7.30;4.47;;;;;;;1.56;100.00;101075.88;4996382;28;20502;-73
2024/01/06 02:08:45;;;;;;;6.53;4.37;;;;;;;1.56;100.00;101070.56;5007614;28;20219;-73
2024/01/06 02:11:11;;;;;;;7.80;4.53;;;;;;;1.07;100.00;101046.63;5008551;28;20662;-73
2024/01/06 02:13:37;;;;;;;6.60;3.93;;;;;;;1.15;100.00;101042.47;5010577;28;20197;-73
2024/01/06 02:16:04;;;;;;;7.80;4.90;;;;;;;1.79;100.00;101093.22;4997681;28;20278;-74
2024/01/06 02:18:30;;;;;;;6.73;4.17;;;;;;;1.22;100.00;101018.03;5008944;28;20455;-73
2024/01/06 02:21:01;;;;;;;7.73;4.30;;;;;;;1.34;100.00;101088.31;5000540;28;20447;-73
2024/01/06 02:23:27;;;;;;;6.60;4.23;;;;;;;0.59;100.00;100946.03;5016136;28;20928;-73
2024/01/06 02:25:52;;;;;;;6.97;4.47;;;;;;;0.46;100.00;100888.19;5013685;28;20470;-74
2024/01/06 02:28:18;;;;;;;7.93;4.53;;;;;;;1.21;100.00;101031.38;4997959;28;20972;-74
2024/01/06 02:30:43;;;;;;;7.63;5.33;;;;;;;1.63;100.00;101116.69;5012881;28;20200;-74
2024/01/06 02:33:09;;;;;;;7.87;4.83;;;;;;;1.40;100.00;101121.31;5005797;28;20666;-73
2024/01/06 02:35:35;;;;;;;8.30;4.37;;;;;;;0.90;100.00;100995.25;5012019;28;20597;-74
2024/01/06 02:38:00;;;;;;;9.37;4.90;;;;;;;1.23;100.00;101090.22;4998039;28;20400;-74
2024/01/06 02:40:26;;;;;;;8.27;4.50;;;;;;;1.40;100.00;101108.09;5017411;28;20447;-74
2024/01/06 02:42:51;;;;;;;7.30;4.97;;;;;;;0.50;100.00;100984.63;5012174;28;20620;-74
2024/01/06 02:45:17;;;;;;;7.70;4.70;;;;;;;0.87;100.00;101013.16;5015125;28;20199;-74
2024/01/06 02:47:42;;;;;;;7.23;4.80;;;;;;;1.36;100.00;101125.19;5010433;28;20298;-74
2024/01/06 02:50:08;;;;;;;7.30;4.80;;;;;;;0.66;100.00;101039.56;5011636;28;20196;-74
2024/01/06 02:52:33;;;;;;;6.90;4.50;;;;;;;1.27;100.00;101113.63;5012198;28;20259;-74
2024/01/06 02:54:59;;;;;;;7.50;4.53;;;;;;;0.31;100.00;100976.56;5009543;28;20192;-74
2024/01/06 02:57:24;;;;;;;6.80;4.20;;;;;;;1.54;100.00;101146.56;5017881;28;20208;-74
2024/01/06 02:59:50;;;;;;;7.23;4.60;;;;;;;0.64;100.00;101052.91;5016448;28;20558;-73
2024/01/06 03:02:16;;;;;;;8.20;4.20;;;;;;;1.36;100.00;101170.13;5011482;28;20212;-74
2024/01/06 03:07:16;;;;;;;7.43;4.43;;;;;;;-0.46;100.00;100859.88;5024591;28;20306;-74
2024/01/06 03:09:41;;;;;;;8.98;4.82;;;;;;;0.15;100.00;100951.47;5026666;28;20502;-73
2024/01/06 03:12:07;;;;;;;7.57;4.60;;;;;;;-0.31;100.00;100921.03;5025582;28;20644;-73
2024/01/06 03:14:34;;;;;;;7.30;4.10;;;;;;;-0.87;100.00;100804.47;5007455;28;20205;-73
2024/01/06 03:17:00;;;;;;;7.63;4.20;;;;;;;1.50;100.00;101155.72;5008252;28;20438;-73
2024/01/06 03:19:27;;;;;;;6.40;4.07;;;;;;;0.67;100.00;101065.03;5003577;28;20193;-73
2024/01/06 03:21:53;;;;;;;6.87;3.80;;;;;;;1.32;100.00;101134.34;5004323;28;20205;-73
2024/01/06 03:24:18;;;;;;;6.70;4.23;;;;;;;1.27;100.00;101121.53;5002915;28;20467;-73
2024/01/06 03:26:44;;;;;;;6.97;4.57;;;;;;;0.57;100.00;101058.84;5006188;28;20521;-73
2024/01/06 03:29:09;;;;;;;6.47;4.27;;;;;;;1.16;100.00;101152.47;5012754;28;20193;-73
2024/01/06 03:31:35;;;;;;;8.80;4.43;;;;;;;1.33;100.00;101178.28;5006145;28;20192;-73
2024/01/06 03:34:00;;;;;;;6.87;4.30;;;;;;;1.13;100.00;101159.72;4989012;28;20220;-73
2024/01/06 03:36:25;;;;;;;8.53;4.87;;;;;;;1.02;100.00;101128.06;5006235;28;20270;-73
2024/01/06 03:38:51;;;;;;;7.53;4.43;;;;;;;0.40;100.00;101039.13;5005098;28;20199;-73
2024/01/06 03:41:16;;;;;;;7.80;4.60;;;;;;;1.03;100.00;101120.97;5008378;28;20362;-73
2024/01/06 03:43:42;;;;;;;7.77;4.87;;;;;;;0.49;100.00;101035.72;5005682;28;20264;-73
2024/01/06 03:46:07;;;;;;;7.40;4.57;;;;;;;1.40;100.00;101168.06;5018733;28;20212;-74
2024/01/06 03:48:33;;;;;;;6.60;4.60;;;;;;;1.45;100.00;101190.50;5009055;28;20209;-73
2024/01/06 03:51:02;;;;;;;7.73;4.43;;;;;;;1.22;100.00;101144.88;5004664;28;20192;-73
2024/01/06 03:53:27;;;;;;;7.40;4.30;;;;;;;1.40;100.00;101197.97;4994611;28;20217;-73
2024/01/06 03:55:53;;;;;;;6.80;4.23;;;;;;;1.27;100.00;101186.75;5001636;28;20522;-73
2024/01/06 03:58:18;;;;;;;6.23;4.03;;;;;;;0.81;100.00;101135.13;5005028;28;20189;-73
2024/01/06 04:00:44;;;;;;;7.63;4.43;;;;;;;1.21;100.00;101174.06;5004683;28;20188;-73
2024/01/06 04:03:09;;;;;;;6.40;4.27;;;;;;;1.13;100.00;101161.50;5009693;28;20215;-73
2024/01/06 04:05:35;;;;;;;7.40;5.13;;;;;;;0.83;100.00;101141.97;5005531;28;20225;-73
2024/01/06 04:08:00;;;;;;;6.57;4.40;;;;;;;0.23;100.00;101003.59;5005221;28;20189;-73
2024/01/06 04:13:07;;;;;;;6.73;4.27;;;;;;;-0.21;100.00;101008.09;5080849;27;21005;-74
2024/01/06 04:15:34;;;;;;;7.63;4.57;;;;;;;0.20;100.00;101041.63;5050693;28;20464;-73
2024/01/06 04:18:03;;;;;;;7.97;3.97;;;;;;;-0.82;100.00;100907.66;5040976;28;20434;-74
2024/01/06 04:20:29;;;;;;;6.50;4.30;;;;;;;1.54;100.00;101226.72;5040381;28;20668;-74
2024/01/06 04:22:54;;;;;;;7.80;4.20;;;;;;;1.01;100.00;101166.00;5079602;28;20516;-73
2024/01/06 04:25:21;;;;;;;7.20;4.90;;;;;;;0.79;100.00;101123.88;5039797;28;20545;-73
2024/01/06 04:27:46;;;;;;;6.50;4.50;;;;;;;1.42;100.00;101208.41;5040022;28;20185;-73
2024/01/06 04:30:13;;;;;;;7.17;4.60;;;;;;;1.06;100.00;101144.50;5042805;28;20464;-73
2024/01/06 04:32:38;;;;;;;6.57;3.93;;;;;;;0.86;100.00;101168.13;5041510;28;20434;-74
2024/01/06 04:35:04;;;;;;;8.27;4.87;;;;;;;1.55;100.00;101238.94;5041259;28;21048;-74
2024/01/06 04:37:30;;;;;;;6.27;3.90;;;;;;;1.71;100.00;101245.59;5044853;28;20182;-73
2024/01/06 04:39:56;;;;;;;6.90;4.13;;;;;;;1.09;100.00;101205.81;5046906;28;20820;-74
2024/01/06 04:42:22;;;;;;;6.47;4.23;;;;;;;0.95;100.00;101192.09;5048530;28;20490;-73
2024/01/06 04:44:48;;;;;;;6.47;3.93;;;;;;;1.33;100.00;101282.25;5044015;28;20228;-74
2024/01/06 04:47:13;;;;;;;8.93;3.80;;;;;;;1.19;100.00;101263.22;5042314;28;20520;-73
2024/01/06 04:49:39;;;;;;;6.70;4.07;;;;;;;0.84;100.00;101195.63;5043518;28;20595;-74
2024/01/06 04:52:04;;;;;;;6.57;4.33;;;;;;;1.10;100.00;101235.75;5041129;28;20192;-73
2024/01/06 04:54:30;;;;;;;7.50;4.40;;;;;;;0.77;100.00;101194.47;5045129;28;20226;-74
2024/01/06 04:56:56;;;;;;;7.30;4.57;;;;;;;0.96;100.00;101191.16;5037343;28;20195;-74
2024/01/06 04:59:21;;;;;;;6.35;3.95;;;;;;;1.41;100.00;101265.72;5044439;28;20191;-73
2024/01/06 05:01:47;;;;;;;6.80;4.20;;;;;;;1.16;100.00;101245.81;5040824;28;20465;-73
2024/01/06 05:04:12;;;;;;;9.23;4.63;;;;;;;0.80;100.00;101188.94;5041541;28;20214;-74
2024/01/06 05:06:38;;;;;;;7.20;4.70;;;;;;;1.17;100.00;101221.06;5042916;28;20195;-74
2024/01/06 05:09:03;;;;;;;9.60;4.50;;;;;;;1.04;100.00;101204.53;5042342;28;20219;-73
2024/01/06 05:11:29;;;;;;;7.70;4.67;;;;;;;0.83;100.00;101152.53;5041346;28;20652;-73
2024/01/06 05:13:54;;;;;;;6.95;4.30;;;;;;;1.23;100.00;101201.19;5047130;28;20211;-73
2024/01/06 05:16:20;;;;;;;10.27;4.97;;;;;;;1.34;100.00;101223.13;5040028;28;20280;-73
2024/01/06 05:18:45;;;;;;;8.10;4.10;;;;;;;0.85;100.00;101192.03;5040093;28;20183;-73
2024/01/06 05:21:10;;;;;;;8.53;4.60;;;;;;;1.06;100.00;101253.63;5038181;28;20619;-73
2024/01/06 05:23:36;;;;;;;6.97;4.40;;;;;;;0.68;100.00;101152.00;5034499;28;20192;-74
2024/01/06 05:26:01;;;;;;;7.57;4.83;;;;;;;1.35;100.00;101284.72;5027563;28;20191;-74
2024/01/06 05:28:27;;;;;;;9.70;5.03;;;;;;;1.16;100.00;101243.16;5026088;28;20192;-74
2024/01/06 05:30:52;;;;;;;7.20;4.07;;;;;;;1.03;100.00;101253.91;5057073;28;20193;-73
2024/01/06 05:33:18;;;;;;;7.70;5.10;;;;;;;1.16;100.00;101260.78;5026785;28;20193;-73
2024/01/06 05:35:43;;;;;;;7.37;4.70;;;;;;;1.55;100.00;101302.41;5029106;28;20308;-74
2024/01/06 05:38:08;;;;;;;7.80;4.83;;;;;;;1.13;100.00;101243.44;5032017;28;20572;-73
2024/01/06 05:40:34;;;;;;;7.80;4.80;;;;;;;1.37;100.00;101281.97;5032056;28;20183;-73
2024/01/06 05:42:59;;;;;;;8.10;4.80;;;;;;;0.95;100.00;101213.22;5029778;28;20254;-74
2024/01/06 05:45:25;;;;;;;6.80;4.60;;;;;;;1.69;100.00;101321.56;5026407;28;20732;-74
2024/01/06 05:47:50;;;;;;;7.83;4.83;;;;;;;1.22;100.00;101270.88;5026862;28;20554;-73
2024/01/06 05:50:16;;;;;;;8.83;4.90;;;;;;;1.20;100.00;101296.59;5027185;28;20187;-74
2024/01/06 05:52:42;;;;;;;6.03;4.03;;;;;;;1.61;100.00;101322.22;5025686;28;20263;-73
2024/01/06 05:55:09;;;;;;;7.23;4.50;;;;;;;1.17;100.00;101283.63;5029354;28;20562;-73
2024/01/06 05:57:34;;;;;;;6.40;3.80;;;;;;;1.39;100.00;101346.09;5026870;28;21052;-74
2024/01/06 06:00:00;;;;;;;8.20;4.30;;;;;;;1.38;100.00;101332.06;5026473;28;20467;-74
2024/01/06 06:02:25;;;;;;;8.93;5.20;;;;;;;1.60;100.00;101356.72;5032841;28;20209;-74
2024/01/06 06:04:52;;;;;;;7.30;5.10;;;;;;;1.53;100.00;101357.25;5030595;28;20572;-74
2024/01/06 06:07:17;;;;;;;7.20;4.50;;;;;;;1.55;100.00;101360.56;5030027;28;20184;-74
2024/01/06 06:09:43;;;;;;;8.10;5.40;;;;;;;0.90;100.00;101242.69;5025548;28;20442;-74
2024/01/06 06:12:08;;;;;;;8.00;5.07;;;;;;;1.44;100.00;101351.84;5024733;28;20184;-74
2024/01/06 06:14:34;;;;;;;8.00;4.73;;;;;;;1.60;100.00;101359.38;5026737;28;20231;-73
2024/01/06 06:16:59;;;;;;;7.77;5.30;;;;;;;0.73;100.00;101262.53;5024499;28;20189;-73
2024/01/06 06:19:25;;;;;;;7.63;4.97;;;;;;;0.80;100.00;101291.91;5024490;28;20188;-73
2024/01/06 06:21:50;;;;;;;8.77;5.33;;;;;;;0.84;100.00;101257.22;5030164;28;20200;-74
2024/01/06 06:24:16;;;;;;;8.03;5.20;;;;;;;1.49;100.00;101381.41;5025419;28;20205;-74
2024/01/06 06:26:41;;;;;;;9.13;5.60;;;;;;;1.56;100.00;101399.28;5044240;28;20195;-74
2024/01/06 06:29:07;;;;;;;9.90;5.30;;;;;;;1.55;100.00;101412.63;5027407;28;20185;-73
2024/01/06 06:31:32;;;;;;;8.57;4.93;;;;;;;1.60;100.00;101433.41;5030770;28;20184;-73
2024/01/06 06:33:57;;;;;;;9.07;5.43;;;;;;;1.46;100.00;101426.59;5024973;28;20226;-74
2024/01/06 06:36:23;;;;;;;7.50;4.73;;;;;;;1.65;100.00;101418.84;5026898;28;20246;-74
2024/01/06 06:38:48;;;;;;;7.70;5.03;;;;;;;1.47;100.00;101400.03;5028981;28;20272;-73
2024/01/06 06:41:14;;;;;;;7.40;4.70;;;;;;;1.69;100.00;101441.41;5030169;28;20269;-73
2024/01/06 06:43:40;;;;;;;6.80;4.63;;;;;;;1.41;100.00;101403.16;5036175;28;20183;-74
2024/01/06 06:46:05;;;;;;;8.50;5.27;;;;;;;1.32;100.00;101425.06;5033687;28;20731;-73
2024/01/06 06:48:31;;;;;;;8.00;5.40;;;;;;;1.52;100.00;101444.59;5033935;28;20526;-73
2024/01/06 06:50:56;;;;;;;8.93;4.77;;;;;;;1.06;100.00;101390.19;5030574;28;20189;-73
2024/01/06 06:53:22;;;;;;;7.33;4.10;;;;;;;0.85;100.00;101356.59;5033080;28;20177;-73
2024/01/06 06:55:47;;;;;;;7.50;4.80;;;;;;;1.61;100.00;101470.28;5030112;28;20204;-74
2024/01/06 06:58:13;;;;;;;7.63;5.30;;;;;;;1.12;100.00;101402.91;5033787;28;20657;-74
2024/01/06 07:00:39;;;;;;;7.97;4.83;;;;;;;0.89;100.00;101402.94;5029791;28;20184;-74
2024/01/06 07:03:04;;;;;;;7.63;4.80;;;;;;;1.15;100.00;101413.22;5034023;28;20223;-74
2024/01/06 07:05:30;;;;;;;8.63;5.50;;;;;;;1.59;100.00;101488.06;5034353;28;21139;-73
2024/01/06 07:07:55;;;;;;;7.70;5.33;;;;;;;0.93;100.00;101370.97;5032748;28;20270;-73
2024/01/06 07:10:22;;;;;;;8.90;5.80;;;;;;;1.41;100.00;101471.06;5035331;28;20188;-74
2024/01/06 07:12:48;;;;;;;8.97;5.73;;;;;;;1.14;100.00;101414.19;5035232;28;20184;-73
2024/01/06 07:15:13;;;;;;;8.40;5.40;;;;;;;0.74;100.00;101355.78;5033153;28;20455;-74
2024/01/06 07:17:38;;;;;;;8.10;5.93;;;;;;;1.40;100.00;101486.09;5036482;28;20178;-74
2024/01/06 07:20:06;;;;;;;7.80;5.43;;;;;;;1.47;100.00;101499.66;5029565;28;20191;-74
2024/01/06 07:22:34;;;;;;;9.60;6.33;;;;;;;1.54;100.00;101501.69;5038068;28;20199;-74
2024/01/06 07:25:00;;;;;;;7.93;5.47;;;;;;;1.66;100.00;101514.88;5031133;28;20509;-73
2024/01/06 07:27:25;;;;;;;8.37;6.20;;;;;;;1.39;100.00;101468.56;5033266;28;20438;-73
2024/01/06 07:29:51;;;;;;;9.30;6.37;;;;;;;1.63;100.00;101523.06;5032202;28;20188;-73
2024/01/06 07:32:16;;;;;;;9.80;6.73;;;;;;;1.59;100.00;101530.38;5029358;28;20191;-74
2024/01/06 07:34:43;;;;;;;11.77;6.50;;;;;;;0.91;100.00;101431.88;5025747;28;20752;-74
2024/01/06 07:37:08;;;;;;;9.50;6.00;;;;;;;0.88;100.00;101427.66;5033065;28;20682;-74
2024/01/06 07:39:34;;;;;;;9.20;6.33;;;;;;;1.56;100.00;101528.84;5039428;28;20569;-73
2024/01/06 07:41:59;;;;;;;8.40;6.10;;;;;;;1.18;100.00;101484.31;5036573;28;20543;-73
2024/01/06 07:44:24;;;;;;;9.57;6.20;;;;;;;1.63;100.00;101549.50;5036706;28;20239;-73
2024/01/06 07:46:51;;;;;;;10.00;6.17;;;;;;;1.52;100.00;101532.69;5036823;28;20259;-73
2024/01/06 07:49:17;;;;;;;10.73;6.47;;;;;;;0.97;100.00;101472.81;5035399;28;20642;-74
2024/01/06 07:51:42;;;;;;;10.77;6.83;;;;;;;0.90;100.00;101467.19;5034527;28;20424;-73
2024/01/06 07:54:09;;;;;;;8.03;5.70;;;;;;;1.30;100.00;101538.00;5031103;28;20200;-73
2024/01/06 07:56:38;;;;;;;8.57;6.33;;;;;;;1.08;100.00;101486.03;5028011;28;20207;-73
2024/01/06 07:59:04;;;;;;;10.13;6.50;;;;;;;1.48;100.00;101546.28;5030020;28;20465;-74
2024/01/06 08:01:30;;;;;;;9.80;6.83;;;;;;;1.21;100.00;101480.59;5029829;28;20473;-73
2024/01/06 08:03:55;;;;;;;7.90;6.07;;;;;;;0.70;100.00;101418.56;5026433;28;20454;-74
2024/01/06 08:06:21;;;;;;;12.83;6.90;;;;;;;1.28;100.00;101521.44;5030204;28;20812;-74
2024/01/06 08:08:46;;;;;;;10.17;7.33;;;;;;;0.86;100.00;101471.84;5026977;28;20613;-74
2024/01/06 08:11:12;;;;;;;10.40;7.00;;;;;;;1.56;100.00;101551.78;5027817;28;20192;-73
2024/01/06 08:13:37;;;;;;;11.17;6.80;;;;;;;1.23;100.00;101523.59;5029289;28;20187;-74
2024/01/06 08:16:04;;;;;;;9.50;6.13;;;;;;;1.45;100.00;101575.63;5030345;28;20183;-74
2024/01/06 08:18:29;;;;;;;10.13;7.00;;;;;;;1.11;100.00;101493.72;5036000;28;20184;-74
2024/01/06 08:20:55;;;;;;;9.37;6.20;;;;;;;1.38;100.00;101555.91;5038598;28;20440;-73
2024/01/06 08:23:20;;;;;;;9.57;6.43;;;;;;;1.28;100.00;101539.94;5028762;28;20188;-73
2024/01/06 08:25:46;;;;;;;9.67;6.30;;;;;;;0.87;100.00;101475.34;5026702;28;20201;-73
2024/01/06 08:28:14;;;;;;;11.50;6.70;;;;;;;0.95;100.00;101464.16;5028230;28;20196;-74
2024/01/06 08:30:40;;;;;;;9.57;6.90;;;;;;;0.84;100.00;101484.34;5027508;28;20950;-74
2024/01/06 08:33:05;;;;;;;11.50;7.47;;;;;;;0.79;100.00;101490.94;5023062;28;20463;-73
2024/01/06 08:35:31;;;;;;;10.07;6.87;;;;;;;1.35;100.00;101562.28;5026702;28;20256;-74
2024/01/06 08:37:57;;;;;;;9.43;6.83;;;;;;;1.27;100.00;101556.75;5029305;28;20211;-74
2024/01/06 08:40:22;;;;;;;11.43;7.20;;;;;;;1.02;100.00;101534.06;5026443;28;20434;-73
2024/01/06 08:42:47;;;;;;;10.20;6.90;;;;;;;1.57;100.00;101609.03;5028170;28;20663;-74
2024/01/06 08:45:13;;;;;;;10.27;7.60;;;;;;;1.57;100.00;101620.44;5028202;28;20704;-74
2024/01/06 08:47:38;;;;;;;9.33;6.40;;;;;;;1.49;100.00;101599.03;5032541;28;20549;-74
2024/01/06 08:50:04;;;;;;;10.47;7.13;;;;;;;0.62;100.00;101486.97;5029676;28;20195;-73
2024/01/06 08:52:30;;;;;;;10.53;7.80;;;;;;;1.18;100.00;101549.53;5035678;28;20185;-74
2024/01/06 08:54:55;;;;;;;10.90;7.77;;;;;;;1.12;100.00;101566.72;5035303;28;20996;-74
2024/01/06 08:57:20;;;;;;;10.70;6.93;;;;;;;1.09;100.00;101559.88;5030813;28;20185;-74
2024/01/06 08:59:46;;;;;;;10.60;7.20;;;;;;;1.36;100.00;101643.28;5030027;28;20246;-73
2024/01/06 09:02:12;;;;;;;11.10;7.73;;;;;;;1.15;100.00;101581.50;5031416;28;20204;-75
2024/01/06 09:04:38;;;;;;;12.13;7.93;;;;;;;1.58;100.00;101645.91;5026869;28;20282;-74
2024/01/06 09:07:06;;;;;;;10.27;7.23;;;;;;;1.70;100.00;101669.69;5031989;28;20431;-73
2024/01/06 09:09:32;;;;;;;11.77;7.30;;;;;;;0.95;100.00;101562.75;5032058;28;20196;-74
2024/01/06 09:11:58;;;;;;;10.80;6.90;;;;;;;1.22;100.00;101617.91;5030022;28;20444;-74
2024/01/06 09:14:23;;;;;;;10.07;7.30;;;;;;;1.60;100.00;101668.75;5063558;28;20216;-74
2024/01/06 09:16:48;;;;;;;10.07;6.77;;;;;;;1.05;100.00;101594.59;5028710;28;20185;-74
2024/01/06 09:19:14;;;;;;;9.30;6.50;;;;;;;0.95;100.00;101588.31;5026034;28;20173;-72
2024/01/06 09:21:39;;;;;;;9.43;6.80;;;;;;;0.86;100.00;101587.22;5036856;28;20226;-71
2024/01/06 09:24:06;;;;;;;12.10;6.70;;;;;;;1.37;100.00;101644.13;5034437;28;20274;-71
2024/01/06 09:26:34;;;;;;;8.60;6.27;;;;;;;1.58;100.00;101680.28;5034599;28;20184;-71
2024/01/06 09:29:01;;;;;;;9.57;6.83;;;;;;;1.57;100.00;101689.19;5031993;28;20447;-71
2024/01/06 09:31:26;;;;;;;12.40;7.13;;;;;;;1.54;100.00;101685.94;5033883;28;20439;-71
2024/01/06 09:33:52;;;;;;;8.77;6.43;;;;;;;1.57;100.00;101670.66;5030148;28;21037;-72
2024/01/06 09:36:18;;;;;;;11.50;7.10;;;;;;;1.06;100.00;101605.03;5031043;28;20610;-72
2024/01/06 09:38:44;;;;;;;10.27;7.00;;;;;;;1.63;100.00;101724.06;5030386;28;20187;-72
2024/01/06 09:41:09;;;;;;;9.87;6.60;;;;;;;1.21;100.00;101613.56;5034911;28;20467;-72
2024/01/06 09:43:35;;;;;;;11.90;8.30;;;;;;;1.80;100.00;101705.06;5036440;28;20184;-72
2024/01/06 09:46:17;;;;;;;11.43;7.60;;;;;;;1.60;100.00;101713.72;5036154;28;20193;-72
2024/01/06 09:48:43;;;;;;;9.83;6.67;;;;;;;1.25;100.00;101688.19;5033463;28;20927;-72
2024/01/06 09:51:11;;;;;;;11.00;7.23;;;;;;;1.61;100.00;101726.81;5039647;28;20419;-73
2024/01/06 09:53:47;;;;;;;11.50;7.47;;;;;;;0.84;100.00;101602.34;5036944;28;20179;-73
2024/01/06 09:56:15;;;;;;;13.70;8.03;;;;;;;1.44;100.00;101724.63;5031923;28;20487;-73
2024/01/06 09:58:41;;;;;;;11.37;8.27;;;;;;;0.89;100.00;101623.97;5040727;28;20523;-73
2024/01/06 10:01:08;;;;;;;11.57;8.20;;;;;;;1.07;100.00;101654.28;5034652;28;20948;-73
2024/01/06 10:03:35;;;;;;;11.17;7.97;;;;;;;1.47;100.00;101733.16;5028989;28;20475;-73
2024/01/06 10:06:03;;;;;;;11.17;7.87;;;;;;;1.32;100.00;101705.25;5031162;28;20442;-73
2024/01/06 10:08:29;;;;;;;12.37;8.50;;;;;;;1.46;100.00;101720.91;5035923;28;20411;-73
2024/01/06 10:10:55;;;;;;;12.23;8.13;;;;;;;0.96;100.00;101598.78;5034711;28;20563;-73
2024/01/06 10:13:20;;;;;;;11.20;8.07;;;;;;;1.02;100.00;101610.69;5037396;28;20510;-73
2024/01/06 10:15:46;;;;;;;13.30;8.40;;;;;;;1.67;100.00;101704.31;5032714;28;20227;-73
2024/01/06 10:18:13;;;;;;;9.70;7.40;;;;;;;1.43;100.00;101648.91;5029844;28;20320;-73
2024/01/06 10:20:38;;;;;;;10.03;7.40;;;;;;;0.77;100.00;101575.56;5030195;28;20184;-73
2024/01/06 10:23:07;;;;;;;9.80;7.03;;;;;;;1.58;100.00;101682.09;5061003;28;20459;-73
2024/01/06 10:25:32;;;;;;;10.33;6.90;;;;;;;1.01;100.00;101628.31;5065482;28;20215;-73
2024/01/06 10:28:01;;;;;;;10.30;7.70;;;;;;;1.49;100.00;101711.88;5035705;28;20431;-74
2024/01/06 10:30:27;;;;;;;10.87;7.97;;;;;;;1.39;100.00;101695.03;5039042;28;20255;-73
2024/01/06 10:32:52;;;;;;;12.40;8.20;;;;;;;0.93;100.00;101614.00;5034257;28;20445;-74
2024/01/06 10:35:18;;;;;;;11.10;7.47;;;;;;;1.58;100.00;101721.75;5033295;28;20208;-75
2024/01/06 10:37:45;;;;;;;11.03;7.60;;;;;;;0.93;100.00;101614.00;5037909;28;20180;-73
2024/01/06 10:40:13;;;;;;;9.37;6.50;;;;;;;1.49;100.00;101749.75;5028505;28;20440;-73
2024/01/06 10:42:39;;;;;;;10.40;7.40;;;;;;;1.56;100.00;101748.34;5031065;28;20569;-73
2024/01/06 10:45:10;;;;;;;9.27;6.43;;;;;;;0.94;100.00;101621.00;5029271;28;20455;-73
2024/01/06 10:47:36;;;;;;;10.87;6.97;;;;;;;1.56;100.00;101737.75;5029904;28;20440;-74
2024/01/06 10:50:02;;;;;;;10.03;6.90;;;;;;;1.52;100.00;101760.09;5029272;28;20442;-73
2024/01/06 10:52:28;;;;;;;10.77;8.10;;;;;;;1.77;100.00;101758.22;5023860;28;20975;-73
2024/01/06 10:54:54;;;;;;;11.40;7.87;;;;;;;1.46;100.00;101661.91;5032997;28;20450;-73
2024/01/06 10:57:20;;;;;;;11.03;7.73;;;;;;;1.67;100.00;101706.97;5033812;28;20595;-73
2024/01/06 10:59:49;;;;;;;11.20;7.50;;;;;;;0.93;100.00;101640.41;5028993;28;20435;-73
2024/01/06 11:02:16;;;;;;;11.27;7.30;;;;;;;1.68;100.00;101766.81;5029740;28;20485;-73
2024/01/06 11:04:44;;;;;;;12.00;8.80;;;;;;;1.83;100.00;101773.59;5028266;28;20502;-73
2024/01/06 11:07:10;;;;;;;11.87;8.30;;;;;;;1.50;100.00;101748.78;5026532;28;21156;-73
2024/01/06 11:09:39;;;;;;;10.63;7.40;;;;;;;1.11;100.00;101702.44;5026985;28;20458;-73
2024/01/06 11:12:06;;;;;;;10.40;7.20;;;;;;;1.21;100.00;101697.28;5032193;28;20449;-73
2024/01/06 11:14:37;;;;;;;13.13;7.17;;;;;;;1.31;100.00;101709.69;5036816;28;21002;-73
2024/01/06 11:17:03;;;;;;;10.00;6.70;;;;;;;1.68;100.00;101786.22;5026963;28;20439;-73
2024/01/06 11:19:34;;;;;;;9.53;6.80;;;;;;;1.83;100.00;101792.13;5026658;28;20557;-73
2024/01/06 11:22:28;;;;;;;9.67;6.27;;;;;;;1.76;100.00;101793.53;5024976;28;20473;-73
2024/01/06 11:25:04;;;;;;;11.17;6.93;;;;;;;1.63;100.00;101793.66;5026895;28;20874;-73